createdAt,value
2022-08-16T00:01:23.701Z,53.45
2022-08-16T00:03:53.697Z,53.47
2022-08-16T00:06:22.390Z,53.60
2022-08-16T00:08:50.190Z,53.63
2022-08-16T00:11:20.202Z,53.55
2022-08-16T00:13:54.222Z,53.67
2022-08-16T00:17:06.164Z,53.66
2022-08-16T00:19:41.868Z,53.40
2022-08-16T00:22:10.441Z,53.37
2022-08-16T00:24:40.782Z,53.32
2022-08-16T00:27:12.133Z,53.37
2022-08-16T00:29:39.089Z,53.42
2022-08-16T00:32:08.392Z,53.48
2022-08-16T00:34:45.131Z,53.54
2022-08-16T00:37:24.332Z,53.29
2022-08-16T00:39:57.422Z,53.37
2022-08-16T00:42:31.631Z,53.46
2022-08-16T00:45:35.667Z,53.24
2022-08-16T00:48:30.506Z,53.27
2022-08-16T00:51:01.102Z,53.35
2022-08-16T00:53:30.846Z,53.92
2022-08-16T00:56:05.535Z,54.68
2022-08-16T00:58:35.542Z,55.18
2022-08-16T01:01:08.142Z,55.62
2022-08-16T01:03:37.498Z,55.85
2022-08-16T01:06:40.459Z,55.64
2022-08-16T01:09:00.768Z,55.85
2022-08-16T01:11:29.470Z,55.99
2022-08-16T01:14:04.736Z,56.51
2022-08-16T01:16:35.812Z,57.13
2022-08-16T01:19:11.859Z,58.13
2022-08-16T01:21:46.134Z,59.01
2022-08-16T01:24:52.295Z,59.78
2022-08-16T01:27:17.550Z,60.68
2022-08-16T01:30:19.729Z,60.65
2022-08-16T01:33:01.553Z,60.99
2022-08-16T01:35:46.771Z,61.04
2022-08-16T01:38:28.313Z,60.93
2022-08-16T01:41:04.420Z,60.95
2022-08-16T01:43:34.062Z,60.89
2022-08-16T01:46:37.622Z,60.72
2022-08-16T01:48:57.873Z,60.89
2022-08-16T01:51:29.014Z,61.20
2022-08-16T01:53:57.942Z,60.80
2022-08-16T01:56:34.779Z,60.99
2022-08-16T01:59:06.353Z,60.86
2022-08-16T02:01:44.033Z,60.53
2022-08-16T02:04:48.333Z,60.47
2022-08-16T02:07:06.435Z,60.25
2022-08-16T02:09:34.323Z,60.05
2022-08-16T02:12:49.439Z,59.93
2022-08-16T02:14:55.286Z,59.52
2022-08-16T02:17:23.214Z,59.33
2022-08-16T02:19:59.646Z,59.41
2022-08-16T02:22:34.180Z,59.35
2022-08-16T02:25:09.712Z,59.21
2022-08-16T02:27:41.756Z,59.26
2022-08-16T02:30:36.779Z,59.36
2022-08-16T02:33:02.806Z,59.05
2022-08-16T02:35:30.781Z,59.28
2022-08-16T02:37:57.717Z,59.31
2022-08-16T02:40:36.649Z,59.71
2022-08-16T02:43:04.570Z,60.12
2022-08-16T02:45:32.390Z,60.39
2022-08-16T02:48:01.501Z,60.43
2022-08-16T02:50:54.787Z,60.74
2022-08-16T02:53:35.434Z,60.98
2022-08-16T02:56:02.683Z,60.81
2022-08-16T02:58:29.674Z,61.09
2022-08-16T03:00:57.861Z,61.10
2022-08-16T03:04:29.944Z,60.69
2022-08-16T03:06:42.040Z,60.89
2022-08-16T03:09:13.618Z,60.97
2022-08-16T03:11:44.640Z,60.86
2022-08-16T03:14:12.533Z,60.82
2022-08-16T03:16:58.829Z,60.76
2022-08-16T03:19:48.569Z,60.40
2022-08-16T03:22:28.068Z,60.53
2022-08-16T03:25:07.284Z,60.54
2022-08-16T03:27:38.645Z,60.25
2022-08-16T03:30:19.858Z,60.35
2022-08-16T03:32:53.326Z,60.17
2022-08-16T03:35:33.258Z,59.95
2022-08-16T03:38:32.699Z,59.83
2022-08-16T03:41:24.580Z,59.60
2022-08-16T03:43:56.207Z,59.41
2022-08-16T03:46:48.309Z,59.24
2022-08-16T03:49:15.488Z,59.08
2022-08-16T03:51:46.394Z,58.71
2022-08-16T03:54:21.321Z,58.23
2022-08-16T03:56:57.637Z,58.28
2022-08-16T03:59:29.386Z,57.85
2022-08-16T04:02:00.877Z,57.51
2022-08-16T04:04:33.215Z,57.20
2022-08-16T04:07:07.139Z,56.52
2022-08-16T04:09:38.694Z,56.63
2022-08-16T04:12:53.274Z,56.71
2022-08-16T04:14:58.634Z,56.14
2022-08-16T04:17:27.119Z,55.63
2022-08-16T04:19:58.376Z,55.62
2022-08-16T04:22:29.124Z,55.74
2022-08-16T04:25:01.672Z,55.45
2022-08-16T04:27:34.491Z,55.52
2022-08-16T04:30:10.903Z,55.38
2022-08-16T04:32:48.983Z,55.58
2022-08-16T04:35:20.981Z,55.31
2022-08-16T04:37:53.985Z,55.18
2022-08-16T04:40:26.938Z,55.40
2022-08-16T04:42:57.955Z,55.27
2022-08-16T04:45:36.014Z,54.94
2022-08-16T04:48:22.085Z,55.19
2022-08-16T04:51:00.592Z,55.05
2022-08-16T04:53:41.324Z,54.98
2022-08-16T04:56:11.367Z,54.88
2022-08-16T04:58:45.508Z,54.56
2022-08-16T05:01:15.670Z,54.49
2022-08-16T05:03:59.628Z,54.18
2022-08-16T05:06:41.966Z,54.13
2022-08-16T05:09:13.692Z,53.95
2022-08-16T05:11:43.975Z,53.54
2022-08-16T05:14:12.451Z,53.76
2022-08-16T05:16:48.107Z,53.77
2022-08-16T05:19:20.272Z,53.69
2022-08-16T05:22:18.016Z,53.44
2022-08-16T05:24:55.165Z,53.16
2022-08-16T05:27:23.131Z,53.30
2022-08-16T05:29:57.618Z,53.21
2022-08-16T05:32:32.766Z,53.01
2022-08-16T05:35:11.090Z,53.28
2022-08-16T05:37:46.217Z,53.52
2022-08-16T05:40:15.439Z,53.16
2022-08-16T05:42:49.177Z,52.69
2022-08-16T05:45:22.019Z,52.61
2022-08-16T05:47:59.421Z,52.31
2022-08-16T05:50:34.831Z,52.48
2022-08-16T05:53:04.052Z,52.29
2022-08-16T05:55:40.604Z,51.93
2022-08-16T05:58:08.870Z,51.50
2022-08-16T06:00:56.818Z,51.66
2022-08-16T06:03:25.106Z,51.44
2022-08-16T06:06:00.652Z,51.27
2022-08-16T06:08:31.847Z,50.92
2022-08-16T06:11:09.839Z,50.75
2022-08-16T06:13:42.276Z,50.65
2022-08-16T06:16:17.782Z,50.52
2022-08-16T06:18:46.421Z,50.46
2022-08-16T06:21:22.632Z,50.29
2022-08-16T06:23:54.225Z,49.61
2022-08-16T06:26:22.855Z,49.62
2022-08-16T06:28:50.333Z,49.62
2022-08-16T06:31:28.497Z,49.24
2022-08-16T06:33:58.503Z,49.31
2022-08-16T06:36:29.187Z,49.33
2022-08-16T06:39:13.161Z,49.01
2022-08-16T06:41:57.918Z,48.92
2022-08-16T06:44:46.316Z,48.77
2022-08-16T06:47:53.831Z,48.64
2022-08-16T06:50:28.309Z,48.68
2022-08-16T06:53:00.338Z,48.29
2022-08-16T06:55:34.381Z,47.87
2022-08-16T06:58:08.525Z,47.96
2022-08-16T07:00:50.183Z,47.87
2022-08-16T07:03:27.854Z,47.77
2022-08-16T07:05:56.864Z,47.45
2022-08-16T07:08:32.572Z,47.58
2022-08-16T07:10:59.720Z,47.21
2022-08-16T07:16:20.460Z,46.92
2022-08-16T07:18:58.140Z,47.08
2022-08-16T07:21:27.836Z,46.34
2022-08-16T07:24:26.807Z,46.45
2022-08-16T07:27:03.302Z,45.60
2022-08-16T07:29:31.691Z,46.02
2022-08-16T07:32:00.679Z,44.94
2022-08-16T07:34:35.019Z,45.66
2022-08-16T07:37:07.260Z,45.91
2022-08-16T07:39:51.175Z,45.79
2022-08-16T07:42:20.185Z,45.28
2022-08-16T07:44:57.196Z,44.99
2022-08-16T07:47:31.698Z,45.14
2022-08-16T07:50:07.627Z,44.74
2022-08-16T07:52:38.700Z,44.92
2022-08-16T07:55:07.391Z,44.73
2022-08-16T07:57:38.055Z,44.63
2022-08-16T08:00:21.577Z,44.57
2022-08-16T08:02:53.982Z,44.23
2022-08-16T08:05:35.302Z,44.32
2022-08-16T08:08:11.777Z,44.24
2022-08-16T08:10:51.621Z,44.31
2022-08-16T08:13:18.746Z,43.85
2022-08-16T08:15:52.723Z,43.83
2022-08-16T08:18:30.084Z,43.49
2022-08-16T08:20:59.909Z,43.67
2022-08-16T08:23:30.797Z,44.02
2022-08-16T08:25:58.284Z,43.94
2022-08-16T08:28:27.129Z,43.54
2022-08-16T08:31:02.706Z,43.67
2022-08-16T08:33:34.874Z,43.63
2022-08-16T08:36:04.611Z,43.64
2022-08-16T08:38:45.543Z,43.50
2022-08-16T08:41:18.539Z,43.20
2022-08-16T08:43:50.409Z,43.40
2022-08-16T08:46:21.492Z,43.10
2022-08-16T08:49:01.964Z,43.29
2022-08-16T08:51:37.723Z,42.55
2022-08-16T08:54:09.714Z,42.33
2022-08-16T08:56:45.410Z,41.93
2022-08-16T08:59:34.525Z,41.74
2022-08-16T09:02:09.649Z,42.23
2022-08-16T09:04:47.619Z,41.73
2022-08-16T09:07:18.885Z,41.52
2022-08-16T09:09:47.202Z,41.37
2022-08-16T09:12:35.988Z,41.47
2022-08-16T09:15:07.666Z,41.81
2022-08-16T09:17:51.609Z,41.69
2022-08-16T09:20:25.731Z,41.25
2022-08-16T09:22:54.489Z,41.54
2022-08-16T09:25:33.735Z,41.91
2022-08-16T09:28:09.360Z,41.69
2022-08-16T09:30:57.416Z,41.54
2022-08-16T09:33:24.627Z,41.80
2022-08-16T09:35:53.018Z,41.20
2022-08-16T09:38:31.080Z,41.28
2022-08-16T09:40:59.947Z,41.66
2022-08-16T09:43:58.355Z,40.76
2022-08-16T09:46:48.458Z,40.37
2022-08-16T09:49:03.585Z,40.47
2022-08-16T09:51:36.821Z,40.14
2022-08-16T09:54:06.230Z,40.24
2022-08-16T09:56:38.771Z,39.92
2022-08-16T09:59:08.738Z,40.51
2022-08-16T10:01:37.539Z,40.16
2022-08-16T10:04:14.049Z,39.91
2022-08-16T10:06:54.548Z,39.84
2022-08-16T10:09:25.621Z,39.95
2022-08-16T10:12:19.370Z,39.78
2022-08-16T10:14:46.697Z,39.89
2022-08-16T10:17:13.644Z,40.00
2022-08-16T10:19:43.158Z,39.89
2022-08-16T10:22:10.700Z,39.62
2022-08-16T10:24:55.595Z,39.52
2022-08-16T10:27:29.912Z,39.70
2022-08-16T10:30:26.283Z,39.57
2022-08-16T10:32:55.656Z,39.04
2022-08-16T10:35:23.527Z,39.42
2022-08-16T10:37:52.223Z,39.24
2022-08-16T10:40:29.059Z,39.45
2022-08-16T10:42:58.685Z,39.37
2022-08-16T10:45:25.681Z,39.76
2022-08-16T10:47:58.985Z,39.50
2022-08-16T10:50:29.933Z,38.94
2022-08-16T10:52:59.300Z,39.09
2022-08-16T10:55:44.957Z,38.97
2022-08-16T10:58:17.048Z,38.99
2022-08-16T11:00:46.154Z,39.54
2022-08-16T11:06:03.242Z,39.12
2022-08-16T11:08:40.796Z,39.51
2022-08-16T11:11:18.509Z,38.96
2022-08-16T11:14:10.663Z,39.19
2022-08-16T11:19:20.851Z,38.48
2022-08-16T11:24:39.541Z,38.37
2022-08-16T11:27:35.374Z,38.25
2022-08-16T11:29:56.777Z,38.71
2022-08-16T11:32:31.908Z,38.28
2022-08-16T11:35:13.529Z,38.04
2022-08-16T11:40:44.755Z,37.96
2022-08-16T11:43:16.593Z,37.16
2022-08-16T11:45:53.881Z,37.35
2022-08-16T11:48:22.915Z,37.67
2022-08-16T11:50:49.638Z,37.33
2022-08-16T11:53:16.688Z,37.22
2022-08-16T11:55:44.014Z,36.55
2022-08-16T11:58:12.302Z,37.00
2022-08-16T12:00:51.482Z,36.68
2022-08-16T12:03:31.522Z,35.93
2022-08-16T12:06:25.529Z,36.59
2022-08-16T12:09:01.832Z,36.70
2022-08-16T12:11:31.575Z,37.06
2022-08-16T12:14:04.729Z,36.33
2022-08-16T12:16:34.189Z,36.56
2022-08-16T12:19:02.786Z,36.04
2022-08-16T12:21:36.174Z,36.28
2022-08-16T12:24:18.600Z,36.67
2022-08-16T12:26:45.367Z,36.05
2022-08-16T12:29:12.278Z,36.35
2022-08-16T12:31:39.104Z,36.38
2022-08-16T12:34:29.190Z,36.21
2022-08-16T12:36:56.445Z,36.06
2022-08-16T12:39:23.486Z,35.79
2022-08-16T12:41:57.586Z,35.66
2022-08-16T12:44:25.099Z,35.34
2022-08-16T12:46:52.643Z,35.92
2022-08-16T12:49:19.641Z,35.28
2022-08-16T12:51:58.307Z,34.43
2022-08-16T12:54:27.253Z,34.29
2022-08-16T12:56:54.265Z,34.87
2022-08-16T12:59:23.646Z,34.57
2022-08-16T13:01:58.067Z,34.59
2022-08-16T13:04:26.382Z,34.55
2022-08-16T13:06:53.425Z,34.72
2022-08-16T13:09:23.410Z,35.03
2022-08-16T13:11:58.092Z,34.55
2022-08-16T13:14:32.303Z,34.13
2022-08-16T13:17:02.519Z,34.39
2022-08-16T13:19:56.282Z,34.18
2022-08-16T13:22:18.635Z,33.94
2022-08-16T13:24:46.861Z,33.94
2022-08-16T13:27:13.891Z,33.73
2022-08-16T13:29:44.162Z,33.82
2022-08-16T13:32:11.150Z,34.00
2022-08-16T13:34:58.093Z,33.06
2022-08-16T13:37:28.005Z,33.16
2022-08-16T13:39:54.772Z,33.71
2022-08-16T13:42:22.664Z,33.48
2022-08-16T13:44:58.364Z,33.76
2022-08-16T13:47:30.289Z,32.74
2022-08-16T13:49:57.242Z,33.02
2022-08-16T13:52:25.091Z,32.48
2022-08-16T13:54:52.605Z,32.29
2022-08-16T13:57:19.488Z,31.68
2022-08-16T13:59:50.149Z,31.83
2022-08-16T14:02:17.281Z,32.45
2022-08-16T14:04:44.761Z,31.86
2022-08-16T14:07:19.698Z,31.38
2022-08-16T14:09:50.331Z,31.46
2022-08-16T14:12:27.653Z,31.75
2022-08-16T14:14:57.285Z,31.41
2022-08-16T14:17:26.261Z,31.37
2022-08-16T14:19:53.552Z,31.32
2022-08-16T14:22:35.671Z,30.97
2022-08-16T14:25:16.676Z,29.93
2022-08-16T14:27:46.908Z,30.07
2022-08-16T14:30:17.640Z,30.79
2022-08-16T14:32:46.857Z,30.51
2022-08-16T14:35:29.331Z,31.45
2022-08-16T14:38:04.916Z,31.23
2022-08-16T14:40:31.746Z,31.57
2022-08-16T14:42:58.765Z,31.36
2022-08-16T14:45:34.146Z,31.72
2022-08-16T14:48:00.867Z,31.13
2022-08-16T14:50:28.658Z,31.30
2022-08-16T14:52:59.894Z,32.12
2022-08-16T14:55:29.173Z,31.96
2022-08-16T14:57:56.298Z,31.99
2022-08-16T15:00:26.994Z,31.07
2022-08-16T15:03:02.580Z,30.07
2022-08-16T15:08:01.141Z,30.34
2022-08-16T15:10:29.466Z,30.65
2022-08-16T15:12:59.726Z,30.49
2022-08-16T15:15:29.657Z,30.79
2022-08-16T15:17:57.534Z,31.03
2022-08-16T15:20:26.909Z,31.44
2022-08-16T15:22:56.665Z,31.10
2022-08-16T15:25:29.702Z,30.93
2022-08-16T15:27:58.369Z,30.20
2022-08-16T15:30:59.135Z,29.70
2022-08-16T15:33:16.842Z,30.27
2022-08-16T15:35:45.279Z,29.19
2022-08-16T15:38:54.934Z,29.14
2022-08-16T15:41:00.969Z,29.69
2022-08-16T15:43:39.219Z,29.65
2022-08-16T15:46:09.295Z,29.48
2022-08-16T15:48:36.684Z,30.22
2022-08-16T15:51:08.323Z,31.36
2022-08-16T15:53:37.690Z,31.42
2022-08-16T15:56:08.933Z,31.23
2022-08-16T15:58:38.919Z,31.94
2022-08-16T16:01:06.813Z,32.07
2022-08-16T16:03:34.890Z,31.98
2022-08-16T16:06:02.081Z,32.13
2022-08-16T16:08:29.368Z,32.14
2022-08-16T16:11:00.636Z,32.66
2022-08-16T16:13:31.015Z,32.59
2022-08-16T16:16:00.258Z,32.56
2022-08-16T16:18:27.128Z,32.24
2022-08-16T16:21:02.409Z,32.16
2022-08-16T16:23:53.847Z,32.25
2022-08-16T16:26:22.134Z,32.12
2022-08-16T16:29:08.551Z,31.94
2022-08-16T16:31:40.922Z,31.83
2022-08-16T16:34:11.940Z,31.94
2022-08-16T16:36:38.750Z,31.32
2022-08-16T16:39:08.836Z,30.81
2022-08-16T16:41:38.229Z,30.67
2022-08-16T16:44:05.417Z,30.50
2022-08-16T16:46:43.239Z,30.64
2022-08-16T16:49:14.187Z,30.04
2022-08-16T16:51:44.718Z,29.84
2022-08-16T16:54:22.450Z,29.80
2022-08-16T16:56:56.989Z,29.54
2022-08-16T16:59:25.461Z,29.72
2022-08-16T17:02:39.366Z,29.40
2022-08-16T17:04:47.411Z,29.97
2022-08-16T17:07:14.452Z,30.36
2022-08-16T17:09:41.474Z,31.23
2022-08-16T17:12:22.665Z,31.62
2022-08-16T17:14:52.404Z,31.91
2022-08-16T17:17:19.227Z,32.12
2022-08-16T17:19:47.115Z,31.95
2022-08-16T17:22:19.889Z,32.22
2022-08-16T17:24:52.464Z,32.15
2022-08-16T17:27:32.669Z,32.59
2022-08-16T17:30:15.112Z,32.67
2022-08-16T17:32:50.720Z,32.90
2022-08-16T17:35:43.549Z,33.41
2022-08-16T17:38:11.214Z,33.46
2022-08-16T17:40:57.797Z,33.86
2022-08-16T17:43:36.936Z,34.04
2022-08-16T17:46:50.734Z,34.08
2022-08-16T17:48:58.853Z,34.35
2022-08-16T17:51:25.695Z,34.66
2022-08-16T17:53:52.641Z,35.07
2022-08-16T17:56:19.391Z,35.10
2022-08-16T17:58:46.751Z,35.13
2022-08-16T18:01:13.699Z,35.33
2022-08-16T18:04:06.547Z,35.43
2022-08-16T18:06:28.479Z,35.93
2022-08-16T18:09:01.806Z,35.89
2022-08-16T18:11:33.021Z,36.47
2022-08-16T18:13:59.948Z,36.53
2022-08-16T18:16:27.219Z,36.78
2022-08-16T18:18:54.020Z,36.56
2022-08-16T18:21:21.879Z,36.33
2022-08-16T18:23:48.706Z,36.38
2022-08-16T18:26:17.805Z,36.36
2022-08-16T18:28:46.038Z,36.72
2022-08-16T18:31:13.281Z,36.86
2022-08-16T18:33:43.743Z,37.01
2022-08-16T18:36:21.226Z,37.32
2022-08-16T18:38:49.698Z,37.36
2022-08-16T18:41:17.226Z,37.78
2022-08-16T18:43:59.203Z,38.01
2022-08-16T18:46:31.015Z,38.09
2022-08-16T18:48:57.879Z,38.41
2022-08-16T18:51:25.591Z,38.56
2022-08-16T18:53:53.185Z,38.53
2022-08-16T18:56:19.942Z,38.56
2022-08-16T18:58:46.898Z,39.45
2022-08-16T19:01:14.002Z,40.23
2022-08-16T19:03:41.052Z,41.12
2022-08-16T19:06:11.449Z,40.36
2022-08-16T19:08:43.777Z,40.55
2022-08-16T19:11:13.931Z,40.50
2022-08-16T19:13:42.652Z,39.57
2022-08-16T19:16:10.101Z,39.20
2022-08-16T19:18:37.117Z,39.41
2022-08-16T19:21:05.926Z,39.32
2022-08-16T19:23:35.935Z,39.59
2022-08-16T19:26:26.089Z,39.96
2022-08-16T19:28:58.426Z,40.11
2022-08-16T19:31:30.804Z,40.09
2022-08-16T19:33:58.787Z,40.41
2022-08-16T19:36:35.022Z,40.36
2022-08-16T19:39:05.946Z,40.49
2022-08-16T19:41:36.269Z,40.58
2022-08-16T19:44:03.647Z,40.74
2022-08-16T19:46:30.499Z,40.78
2022-08-16T19:48:57.348Z,40.69
2022-08-16T19:51:25.519Z,40.77
2022-08-16T19:53:55.921Z,40.80
2022-08-16T19:56:23.354Z,40.80
2022-08-16T19:59:16.218Z,41.03
2022-08-16T20:01:42.018Z,40.95
2022-08-16T20:04:11.517Z,41.77
2022-08-16T20:06:39.108Z,42.10
2022-08-16T20:09:06.964Z,42.93
2022-08-16T20:11:35.775Z,42.80
2022-08-16T20:14:03.525Z,43.09
2022-08-16T20:16:31.206Z,42.89
2022-08-16T20:18:58.457Z,42.92
2022-08-16T20:21:25.709Z,43.18
2022-08-16T20:24:01.310Z,42.76
2022-08-16T20:26:37.323Z,43.00
2022-08-16T20:29:04.286Z,43.25
2022-08-16T20:31:31.188Z,43.49
2022-08-16T20:33:58.143Z,43.27
2022-08-16T20:36:25.288Z,43.32
2022-08-16T20:38:52.493Z,43.94
2022-08-16T20:41:19.474Z,42.54
2022-08-16T20:43:46.845Z,42.45
2022-08-16T20:46:14.206Z,42.33
2022-08-16T20:48:41.717Z,42.51
2022-08-16T20:51:09.040Z,43.13
2022-08-16T20:53:36.489Z,42.76
2022-08-16T20:56:04.209Z,43.42
2022-08-16T20:58:31.280Z,43.92
2022-08-16T21:00:58.323Z,44.39
2022-08-16T21:03:25.623Z,44.92
2022-08-16T21:05:52.459Z,45.41
2022-08-16T21:08:50.369Z,45.90
2022-08-16T21:11:07.402Z,45.76
2022-08-16T21:13:36.203Z,45.92
2022-08-16T21:16:06.224Z,45.98
2022-08-16T21:18:33.040Z,45.55
2022-08-16T21:20:59.861Z,45.89
2022-08-16T21:23:26.816Z,45.60
2022-08-16T21:25:59.153Z,46.36
2022-08-16T21:28:41.182Z,45.98
2022-08-16T21:31:11.900Z,45.93
2022-08-16T21:33:39.190Z,46.70
2022-08-16T21:36:06.696Z,46.79
2022-08-16T21:38:33.749Z,46.59
2022-08-16T21:41:02.233Z,46.67
2022-08-16T21:43:29.464Z,46.64
2022-08-16T21:45:56.343Z,47.07
2022-08-16T21:48:33.498Z,47.19
2022-08-16T21:51:01.944Z,51.09
2022-08-16T21:53:29.951Z,49.61
2022-08-16T21:55:58.605Z,49.78
2022-08-16T21:58:25.973Z,49.37
2022-08-16T22:00:53.414Z,48.59
2022-08-16T22:03:20.809Z,49.41
2022-08-16T22:06:11.698Z,50.23
2022-08-16T22:08:39.532Z,50.34
2022-08-16T22:11:19.346Z,52.09
2022-08-16T22:13:57.592Z,50.60
2022-08-16T22:16:33.059Z,51.13
2022-08-16T22:19:00.922Z,52.05
2022-08-16T22:21:27.786Z,53.60
2022-08-16T22:23:56.799Z,54.78
2022-08-16T22:26:31.664Z,54.11
2022-08-16T22:29:06.283Z,54.59
2022-08-16T22:31:33.964Z,54.44
2022-08-16T22:34:01.214Z,55.43
2022-08-16T22:36:28.841Z,53.51
2022-08-16T22:38:58.553Z,54.34
2022-08-16T22:41:27.923Z,54.76
2022-08-16T22:43:56.195Z,54.54
2022-08-16T22:46:23.667Z,53.70
2022-08-16T22:48:52.021Z,54.40
2022-08-16T22:51:21.458Z,53.97
2022-08-16T22:53:48.366Z,54.70
2022-08-16T22:56:15.256Z,55.03
2022-08-16T22:58:42.039Z,55.23
2022-08-16T23:01:10.759Z,54.78
2022-08-16T23:03:38.306Z,54.88
2022-08-16T23:06:06.707Z,55.28
2022-08-16T23:08:38.965Z,55.02
2022-08-16T23:11:13.313Z,55.84
2022-08-16T23:13:53.115Z,55.07
2022-08-16T23:16:25.137Z,55.76
2022-08-16T23:19:10.118Z,55.43
2022-08-16T23:21:39.157Z,56.01
2022-08-16T23:24:08.028Z,56.24
2022-08-16T23:26:47.174Z,55.62
2022-08-16T23:29:24.501Z,55.89
2022-08-16T23:31:58.534Z,56.09
2022-08-16T23:34:28.325Z,55.63
2022-08-16T23:36:55.537Z,56.87
2022-08-16T23:39:23.292Z,56.74
2022-08-16T23:41:50.074Z,55.96
2022-08-16T23:44:56.003Z,55.66
2022-08-16T23:47:03.945Z,56.13
2022-08-16T23:50:00.428Z,56.48
2022-08-16T23:52:17.874Z,57.33
2022-08-16T23:54:44.723Z,57.35
2022-08-16T23:57:12.017Z,57.84
2022-08-16T23:59:53.572Z,57.23
